sensor_id;sensor_type;location;lat;lon;timestamp;pressure;altitude;pressure_sealevel;temperature
4421;BMP180;11824;51.178;13.546;2022-12-29T00:01:33;99580.00;;;9.80
4421;BMP180;11824;51.178;13.546;2022-12-29T00:04:01;99578.00;;;9.80
4421;BMP180;11824;51.178;13.546;2022-12-29T00:06:29;99588.00;;;9.80
4421;BMP180;11824;51.178;13.546;2022-12-29T00:08:56;99585.00;;;9.90
4421;BMP180;11824;51.178;13.546;2022-12-29T00:11:25;99585.00;;;10.00
4421;BMP180;11824;51.178;13.546;2022-12-29T00:13:53;99568.00;;;10.00
4421;BMP180;11824;51.178;13.546;2022-12-29T00:16:41;99565.00;;;10.00
4421;BMP180;11824;51.178;13.546;2022-12-29T00:19:11;99567.00;;;10.10
4421;BMP180;11824;51.178;13.546;2022-12-29T00:21:53;99560.00;;;10.10
4421;BMP180;11824;51.178;13.546;2022-12-29T00:24:38;99571.00;;;10.10
4421;BMP180;11824;51.178;13.546;2022-12-29T00:27:25;99567.00;;;10.10
4421;BMP180;11824;51.178;13.546;2022-12-29T00:30:12;99555.00;;;10.20
4421;BMP180;11824;51.178;13.546;2022-12-29T00:32:57;99543.00;;;10.20
4421;BMP180;11824;51.178;13.546;2022-12-29T00:35:47;99539.00;;;10.20
4421;BMP180;11824;51.178;13.546;2022-12-29T00:38:18;99543.00;;;10.30
4421;BMP180;11824;51.178;13.546;2022-12-29T00:41:04;99543.00;;;10.30
4421;BMP180;11824;51.178;13.546;2022-12-29T00:43:50;99538.00;;;10.30
4421;BMP180;11824;51.178;13.546;2022-12-29T00:46:32;99529.00;;;10.30
4421;BMP180;11824;51.178;13.546;2022-12-29T00:49:00;99523.00;;;10.30
4421;BMP180;11824;51.178;13.546;2022-12-29T00:51:46;99529.00;;;10.40
4421;BMP180;11824;51.178;13.546;2022-12-29T00:54:14;99529.00;;;10.40
4421;BMP180;11824;51.178;13.546;2022-12-29T00:56:46;99529.00;;;10.40
4421;BMP180;11824;51.178;13.546;2022-12-29T00:59:14;99520.00;;;10.50
4421;BMP180;11824;51.178;13.546;2022-12-29T01:01:43;99528.00;;;10.50
4421;BMP180;11824;51.178;13.546;2022-12-29T01:04:11;99522.00;;;10.50
4421;BMP180;11824;51.178;13.546;2022-12-29T01:06:39;99524.00;;;10.50
4421;BMP180;11824;51.178;13.546;2022-12-29T01:09:08;99526.00;;;10.50
4421;BMP180;11824;51.178;13.546;2022-12-29T01:11:54;99518.00;;;10.50
4421;BMP180;11824;51.178;13.546;2022-12-29T01:14:22;99535.00;;;10.50
4421;BMP180;11824;51.178;13.546;2022-12-29T01:16:50;99531.00;;;10.50
4421;BMP180;11824;51.178;13.546;2022-12-29T01:19:18;99537.00;;;10.60
4421;BMP180;11824;51.178;13.546;2022-12-29T01:21:45;99540.00;;;10.60
4421;BMP180;11824;51.178;13.546;2022-12-29T01:24:13;99530.00;;;10.60
4421;BMP180;11824;51.178;13.546;2022-12-29T01:26:41;99531.00;;;10.60
4421;BMP180;11824;51.178;13.546;2022-12-29T01:29:09;99534.00;;;10.60
4421;BMP180;11824;51.178;13.546;2022-12-29T01:31:37;99536.00;;;10.60
4421;BMP180;11824;51.178;13.546;2022-12-29T01:34:05;99530.00;;;10.60
4421;BMP180;11824;51.178;13.546;2022-12-29T01:36:32;99528.00;;;10.60
4421;BMP180;11824;51.178;13.546;2022-12-29T01:39:00;99533.00;;;10.60
4421;BMP180;11824;51.178;13.546;2022-12-29T01:41:28;99532.00;;;10.60
4421;BMP180;11824;51.178;13.546;2022-12-29T01:43:57;99526.00;;;10.60
4421;BMP180;11824;51.178;13.546;2022-12-29T01:46:28;99518.00;;;10.60
4421;BMP180;11824;51.178;13.546;2022-12-29T01:49:03;99529.00;;;10.50
4421;BMP180;11824;51.178;13.546;2022-12-29T01:51:35;99521.00;;;10.50
4421;BMP180;11824;51.178;13.546;2022-12-29T01:54:08;99513.00;;;10.50
4421;BMP180;11824;51.178;13.546;2022-12-29T01:56:36;99518.00;;;10.40
4421;BMP180;11824;51.178;13.546;2022-12-29T01:59:14;99516.00;;;10.40
4421;BMP180;11824;51.178;13.546;2022-12-29T02:01:42;99504.00;;;10.30
4421;BMP180;11824;51.178;13.546;2022-12-29T02:04:11;99514.00;;;10.30
4421;BMP180;11824;51.178;13.546;2022-12-29T02:06:45;99508.00;;;10.30
4421;BMP180;11824;51.178;13.546;2022-12-29T02:09:13;99500.00;;;10.30
4421;BMP180;11824;51.178;13.546;2022-12-29T02:11:41;99498.00;;;10.20
4421;BMP180;11824;51.178;13.546;2022-12-29T02:14:09;99503.00;;;10.20
4421;BMP180;11824;51.178;13.546;2022-12-29T02:16:48;99499.00;;;10.20
4421;BMP180;11824;51.178;13.546;2022-12-29T02:22:38;99500.00;;;10.20
4421;BMP180;11824;51.178;13.546;2022-12-29T02:25:34;99503.00;;;10.20
4421;BMP180;11824;51.178;13.546;2022-12-29T02:31:16;99486.00;;;10.20
4421;BMP180;11824;51.178;13.546;2022-12-29T02:33:58;99495.00;;;10.20
4421;BMP180;11824;51.178;13.546;2022-12-29T02:36:35;99495.00;;;10.20
4421;BMP180;11824;51.178;13.546;2022-12-29T02:39:09;99483.00;;;10.20
4421;BMP180;11824;51.178;13.546;2022-12-29T02:41:48;99491.00;;;10.30
4421;BMP180;11824;51.178;13.546;2022-12-29T02:44:25;99493.00;;;10.30
4421;BMP180;11824;51.178;13.546;2022-12-29T02:46:56;99498.00;;;10.30
4421;BMP180;11824;51.178;13.546;2022-12-29T02:49:30;99498.00;;;10.30
4421;BMP180;11824;51.178;13.546;2022-12-29T02:52:02;99494.00;;;10.30
4421;BMP180;11824;51.178;13.546;2022-12-29T02:54:30;99489.00;;;10.40
4421;BMP180;11824;51.178;13.546;2022-12-29T02:57:26;99490.00;;;10.40
4421;BMP180;11824;51.178;13.546;2022-12-29T02:59:57;99502.00;;;10.40
4421;BMP180;11824;51.178;13.546;2022-12-29T03:02:36;99490.00;;;10.40
4421;BMP180;11824;51.178;13.546;2022-12-29T03:05:25;99484.00;;;10.40
4421;BMP180;11824;51.178;13.546;2022-12-29T03:08:01;99484.00;;;10.50
4421;BMP180;11824;51.178;13.546;2022-12-29T03:10:38;99486.00;;;10.50
4421;BMP180;11824;51.178;13.546;2022-12-29T03:13:15;99490.00;;;10.50
4421;BMP180;11824;51.178;13.546;2022-12-29T03:16:10;99481.00;;;10.50
4421;BMP180;11824;51.178;13.546;2022-12-29T03:18:50;99473.00;;;10.50
4421;BMP180;11824;51.178;13.546;2022-12-29T03:21:24;99475.00;;;10.60
4421;BMP180;11824;51.178;13.546;2022-12-29T03:24:14;99465.00;;;10.60
4421;BMP180;11824;51.178;13.546;2022-12-29T03:26:46;99449.00;;;10.60
4421;BMP180;11824;51.178;13.546;2022-12-29T03:29:15;99451.00;;;10.60
4421;BMP180;11824;51.178;13.546;2022-12-29T03:31:45;99461.00;;;10.70
4421;BMP180;11824;51.178;13.546;2022-12-29T03:34:14;99448.00;;;10.70
4421;BMP180;11824;51.178;13.546;2022-12-29T03:36:49;99442.00;;;10.70
4421;BMP180;11824;51.178;13.546;2022-12-29T03:39:20;99441.00;;;10.70
4421;BMP180;11824;51.178;13.546;2022-12-29T03:41:53;99437.00;;;10.70
4421;BMP180;11824;51.178;13.546;2022-12-29T03:44:22;99448.00;;;10.80
4421;BMP180;11824;51.178;13.546;2022-12-29T03:46:57;99429.00;;;10.80
4421;BMP180;11824;51.178;13.546;2022-12-29T03:49:25;99434.00;;;10.80
4421;BMP180;11824;51.178;13.546;2022-12-29T03:51:53;99444.00;;;10.80
4421;BMP180;11824;51.178;13.546;2022-12-29T03:54:20;99438.00;;;10.80
4421;BMP180;11824;51.178;13.546;2022-12-29T03:56:47;99443.00;;;10.80
4421;BMP180;11824;51.178;13.546;2022-12-29T03:59:15;99446.00;;;10.80
4421;BMP180;11824;51.178;13.546;2022-12-29T04:01:42;99434.00;;;10.80
4421;BMP180;11824;51.178;13.546;2022-12-29T04:04:13;99432.00;;;10.90
4421;BMP180;11824;51.178;13.546;2022-12-29T04:06:41;99441.00;;;10.90
4421;BMP180;11824;51.178;13.546;2022-12-29T04:09:10;99445.00;;;10.90
4421;BMP180;11824;51.178;13.546;2022-12-29T04:11:37;99443.00;;;11.00
4421;BMP180;11824;51.178;13.546;2022-12-29T04:14:05;99430.00;;;11.00
4421;BMP180;11824;51.178;13.546;2022-12-29T04:16:33;99427.00;;;11.00
4421;BMP180;11824;51.178;13.546;2022-12-29T04:19:02;99435.00;;;11.10
4421;BMP180;11824;51.178;13.546;2022-12-29T04:21:29;99437.00;;;11.10
4421;BMP180;11824;51.178;13.546;2022-12-29T04:23:57;99434.00;;;11.20
4421;BMP180;11824;51.178;13.546;2022-12-29T04:26:24;99439.00;;;11.20
4421;BMP180;11824;51.178;13.546;2022-12-29T04:28:52;99433.00;;;11.20
4421;BMP180;11824;51.178;13.546;2022-12-29T04:31:19;99436.00;;;11.30
4421;BMP180;11824;51.178;13.546;2022-12-29T04:33:47;99422.00;;;11.30
4421;BMP180;11824;51.178;13.546;2022-12-29T04:36:14;99429.00;;;11.30
4421;BMP180;11824;51.178;13.546;2022-12-29T04:38:41;99429.00;;;11.30
4421;BMP180;11824;51.178;13.546;2022-12-29T04:41:09;99411.00;;;11.30
4421;BMP180;11824;51.178;13.546;2022-12-29T04:43:36;99425.00;;;11.40
4421;BMP180;11824;51.178;13.546;2022-12-29T04:46:04;99425.00;;;11.40
4421;BMP180;11824;51.178;13.546;2022-12-29T04:48:31;99435.00;;;11.40
4421;BMP180;11824;51.178;13.546;2022-12-29T04:50:58;99419.00;;;11.40
4421;BMP180;11824;51.178;13.546;2022-12-29T04:53:26;99425.00;;;11.50
4421;BMP180;11824;51.178;13.546;2022-12-29T04:55:53;99420.00;;;11.50
4421;BMP180;11824;51.178;13.546;2022-12-29T04:58:21;99429.00;;;11.50
4421;BMP180;11824;51.178;13.546;2022-12-29T05:00:50;99432.00;;;11.50
4421;BMP180;11824;51.178;13.546;2022-12-29T05:03:18;99435.00;;;11.50
4421;BMP180;11824;51.178;13.546;2022-12-29T05:05:45;99443.00;;;11.50
4421;BMP180;11824;51.178;13.546;2022-12-29T05:08:13;99438.00;;;11.50
4421;BMP180;11824;51.178;13.546;2022-12-29T05:10:43;99430.00;;;11.50
4421;BMP180;11824;51.178;13.546;2022-12-29T05:13:10;99426.00;;;11.50
4421;BMP180;11824;51.178;13.546;2022-12-29T05:15:38;99421.00;;;11.50
4421;BMP180;11824;51.178;13.546;2022-12-29T05:18:06;99420.00;;;11.50
4421;BMP180;11824;51.178;13.546;2022-12-29T05:20:33;99419.00;;;11.50
4421;BMP180;11824;51.178;13.546;2022-12-29T05:23:01;99429.00;;;11.50
4421;BMP180;11824;51.178;13.546;2022-12-29T05:25:28;99429.00;;;11.60
4421;BMP180;11824;51.178;13.546;2022-12-29T05:27:55;99415.00;;;11.60
4421;BMP180;11824;51.178;13.546;2022-12-29T05:30:23;99421.00;;;11.60
4421;BMP180;11824;51.178;13.546;2022-12-29T05:32:51;99416.00;;;11.60
4421;BMP180;11824;51.178;13.546;2022-12-29T05:35:18;99427.00;;;11.60
4421;BMP180;11824;51.178;13.546;2022-12-29T05:37:45;99433.00;;;11.60
4421;BMP180;11824;51.178;13.546;2022-12-29T05:40:12;99440.00;;;11.60
4421;BMP180;11824;51.178;13.546;2022-12-29T05:42:40;99430.00;;;11.60
4421;BMP180;11824;51.178;13.546;2022-12-29T05:45:08;99429.00;;;11.60
4421;BMP180;11824;51.178;13.546;2022-12-29T05:47:36;99442.00;;;11.60
4421;BMP180;11824;51.178;13.546;2022-12-29T05:50:04;99429.00;;;11.60
4421;BMP180;11824;51.178;13.546;2022-12-29T05:52:32;99446.00;;;11.60
4421;BMP180;11824;51.178;13.546;2022-12-29T05:54:59;99437.00;;;11.60
4421;BMP180;11824;51.178;13.546;2022-12-29T05:57:27;99446.00;;;11.60
4421;BMP180;11824;51.178;13.546;2022-12-29T05:59:54;99446.00;;;11.60
4421;BMP180;11824;51.178;13.546;2022-12-29T06:02:21;99446.00;;;11.60
4421;BMP180;11824;51.178;13.546;2022-12-29T06:04:49;99447.00;;;11.60
4421;BMP180;11824;51.178;13.546;2022-12-29T06:07:17;99444.00;;;11.60
4421;BMP180;11824;51.178;13.546;2022-12-29T06:09:44;99442.00;;;11.60
4421;BMP180;11824;51.178;13.546;2022-12-29T06:12:11;99431.00;;;11.60
4421;BMP180;11824;51.178;13.546;2022-12-29T06:14:38;99423.00;;;11.60
4421;BMP180;11824;51.178;13.546;2022-12-29T06:17:06;99423.00;;;11.60
4421;BMP180;11824;51.178;13.546;2022-12-29T06:19:33;99429.00;;;11.60
4421;BMP180;11824;51.178;13.546;2022-12-29T06:22:00;99426.00;;;11.60
4421;BMP180;11824;51.178;13.546;2022-12-29T06:24:29;99413.00;;;11.50
4421;BMP180;11824;51.178;13.546;2022-12-29T06:26:56;99414.00;;;11.50
4421;BMP180;11824;51.178;13.546;2022-12-29T06:29:23;99398.00;;;11.50
4421;BMP180;11824;51.178;13.546;2022-12-29T06:31:50;99404.00;;;11.50
4421;BMP180;11824;51.178;13.546;2022-12-29T06:34:22;99417.00;;;11.40
4421;BMP180;11824;51.178;13.546;2022-12-29T06:36:49;99408.00;;;11.40
4421;BMP180;11824;51.178;13.546;2022-12-29T06:39:17;99420.00;;;11.40
4421;BMP180;11824;51.178;13.546;2022-12-29T06:41:45;99415.00;;;11.30
4421;BMP180;11824;51.178;13.546;2022-12-29T06:44:12;99410.00;;;11.30
4421;BMP180;11824;51.178;13.546;2022-12-29T06:46:39;99410.00;;;11.20
4421;BMP180;11824;51.178;13.546;2022-12-29T06:49:06;99422.00;;;11.20
4421;BMP180;11824;51.178;13.546;2022-12-29T06:51:34;99415.00;;;11.10
4421;BMP180;11824;51.178;13.546;2022-12-29T06:54:01;99429.00;;;11.10
4421;BMP180;11824;51.178;13.546;2022-12-29T06:56:28;99424.00;;;11.10
4421;BMP180;11824;51.178;13.546;2022-12-29T06:58:56;99432.00;;;11.00
4421;BMP180;11824;51.178;13.546;2022-12-29T07:01:23;99439.00;;;11.00
4421;BMP180;11824;51.178;13.546;2022-12-29T07:03:51;99437.00;;;10.90
4421;BMP180;11824;51.178;13.546;2022-12-29T07:06:18;99451.00;;;10.90
4421;BMP180;11824;51.178;13.546;2022-12-29T07:08:45;99456.00;;;10.80
4421;BMP180;11824;51.178;13.546;2022-12-29T07:11:12;99459.00;;;10.80
4421;BMP180;11824;51.178;13.546;2022-12-29T07:13:40;99463.00;;;10.80
4421;BMP180;11824;51.178;13.546;2022-12-29T07:16:09;99461.00;;;10.80
4421;BMP180;11824;51.178;13.546;2022-12-29T07:18:36;99471.00;;;10.80
4421;BMP180;11824;51.178;13.546;2022-12-29T07:21:04;99462.00;;;10.70
4421;BMP180;11824;51.178;13.546;2022-12-29T07:23:31;99472.00;;;10.70
4421;BMP180;11824;51.178;13.546;2022-12-29T07:26:02;99466.00;;;10.70
4421;BMP180;11824;51.178;13.546;2022-12-29T07:28:30;99477.00;;;10.60
4421;BMP180;11824;51.178;13.546;2022-12-29T07:30:58;99462.00;;;10.60
4421;BMP180;11824;51.178;13.546;2022-12-29T07:33:29;99444.00;;;10.70
4421;BMP180;11824;51.178;13.546;2022-12-29T07:35:56;99452.00;;;10.70
4421;BMP180;11824;51.178;13.546;2022-12-29T07:38:24;99454.00;;;10.70
4421;BMP180;11824;51.178;13.546;2022-12-29T07:40:51;99450.00;;;10.70
4421;BMP180;11824;51.178;13.546;2022-12-29T07:43:22;99443.00;;;10.70
4421;BMP180;11824;51.178;13.546;2022-12-29T07:45:50;99437.00;;;10.70
4421;BMP180;11824;51.178;13.546;2022-12-29T07:48:17;99436.00;;;10.70
4421;BMP180;11824;51.178;13.546;2022-12-29T07:50:45;99444.00;;;10.70
4421;BMP180;11824;51.178;13.546;2022-12-29T07:53:12;99445.00;;;10.70
4421;BMP180;11824;51.178;13.546;2022-12-29T07:55:40;99454.00;;;10.80
4421;BMP180;11824;51.178;13.546;2022-12-29T07:58:07;99454.00;;;10.80
4421;BMP180;11824;51.178;13.546;2022-12-29T08:00:34;99452.00;;;10.80
4421;BMP180;11824;51.178;13.546;2022-12-29T08:03:02;99459.00;;;10.80
4421;BMP180;11824;51.178;13.546;2022-12-29T08:05:30;99454.00;;;10.80
4421;BMP180;11824;51.178;13.546;2022-12-29T08:07:58;99469.00;;;10.80
4421;BMP180;11824;51.178;13.546;2022-12-29T08:10:26;99468.00;;;10.90
4421;BMP180;11824;51.178;13.546;2022-12-29T08:12:53;99470.00;;;10.90
4421;BMP180;11824;51.178;13.546;2022-12-29T08:15:21;99473.00;;;10.90
4421;BMP180;11824;51.178;13.546;2022-12-29T08:17:56;99473.00;;;11.00
4421;BMP180;11824;51.178;13.546;2022-12-29T08:20:24;99466.00;;;11.10
4421;BMP180;11824;51.178;13.546;2022-12-29T08:22:51;99473.00;;;11.10
4421;BMP180;11824;51.178;13.546;2022-12-29T08:25:19;99459.00;;;11.10
4421;BMP180;11824;51.178;13.546;2022-12-29T08:27:46;99453.00;;;11.20
4421;BMP180;11824;51.178;13.546;2022-12-29T08:30:14;99458.00;;;11.20
4421;BMP180;11824;51.178;13.546;2022-12-29T08:32:41;99466.00;;;11.20
4421;BMP180;11824;51.178;13.546;2022-12-29T08:35:09;99474.00;;;11.10
4421;BMP180;11824;51.178;13.546;2022-12-29T08:37:36;99466.00;;;11.10
4421;BMP180;11824;51.178;13.546;2022-12-29T08:40:05;99464.00;;;11.10
4421;BMP180;11824;51.178;13.546;2022-12-29T08:42:33;99471.00;;;11.10
4421;BMP180;11824;51.178;13.546;2022-12-29T08:45:01;99460.00;;;11.10
4421;BMP180;11824;51.178;13.546;2022-12-29T08:47:28;99460.00;;;11.10
4421;BMP180;11824;51.178;13.546;2022-12-29T08:49:55;99460.00;;;11.00
4421;BMP180;11824;51.178;13.546;2022-12-29T08:52:23;99459.00;;;11.00
4421;BMP180;11824;51.178;13.546;2022-12-29T08:54:50;99450.00;;;11.00
4421;BMP180;11824;51.178;13.546;2022-12-29T08:57:17;99458.00;;;11.00
4421;BMP180;11824;51.178;13.546;2022-12-29T08:59:45;99453.00;;;11.00
4421;BMP180;11824;51.178;13.546;2022-12-29T09:02:13;99462.00;;;11.00
4421;BMP180;11824;51.178;13.546;2022-12-29T09:04:48;99469.00;;;11.10
4421;BMP180;11824;51.178;13.546;2022-12-29T09:07:15;99460.00;;;11.10
4421;BMP180;11824;51.178;13.546;2022-12-29T09:09:43;99459.00;;;11.20
4421;BMP180;11824;51.178;13.546;2022-12-29T09:12:10;99460.00;;;11.20
4421;BMP180;11824;51.178;13.546;2022-12-29T09:14:37;99459.00;;;11.30
4421;BMP180;11824;51.178;13.546;2022-12-29T09:17:05;99459.00;;;11.40
4421;BMP180;11824;51.178;13.546;2022-12-29T09:19:51;99470.00;;;11.50
4421;BMP180;11824;51.178;13.546;2022-12-29T09:22:18;99477.00;;;11.60
4421;BMP180;11824;51.178;13.546;2022-12-29T09:24:45;99488.00;;;11.70
4421;BMP180;11824;51.178;13.546;2022-12-29T09:27:13;99484.00;;;11.80
4421;BMP180;11824;51.178;13.546;2022-12-29T09:29:40;99468.00;;;11.90
4421;BMP180;11824;51.178;13.546;2022-12-29T09:32:08;99478.00;;;12.00
4421;BMP180;11824;51.178;13.546;2022-12-29T09:34:43;99485.00;;;12.10
4421;BMP180;11824;51.178;13.546;2022-12-29T09:37:10;99487.00;;;12.20
4421;BMP180;11824;51.178;13.546;2022-12-29T09:39:38;99494.00;;;12.30
4421;BMP180;11824;51.178;13.546;2022-12-29T09:42:08;99492.00;;;12.40
4421;BMP180;11824;51.178;13.546;2022-12-29T09:44:49;99485.00;;;12.50
4421;BMP180;11824;51.178;13.546;2022-12-29T09:47:20;99481.00;;;12.60
4421;BMP180;11824;51.178;13.546;2022-12-29T09:49:49;99466.00;;;12.70
4421;BMP180;11824;51.178;13.546;2022-12-29T09:52:22;99470.00;;;12.70
4421;BMP180;11824;51.178;13.546;2022-12-29T09:54:55;99484.00;;;12.80
4421;BMP180;11824;51.178;13.546;2022-12-29T09:57:34;99480.00;;;12.80
4421;BMP180;11824;51.178;13.546;2022-12-29T10:00:06;99469.00;;;12.90
4421;BMP180;11824;51.178;13.546;2022-12-29T10:02:42;99460.00;;;12.90
4421;BMP180;11824;51.178;13.546;2022-12-29T10:05:23;99451.00;;;12.90
4421;BMP180;11824;51.178;13.546;2022-12-29T10:08:04;99455.00;;;12.90
4421;BMP180;11824;51.178;13.546;2022-12-29T10:10:38;99451.00;;;12.90
4421;BMP180;11824;51.178;13.546;2022-12-29T10:13:18;99447.00;;;12.90
4421;BMP180;11824;51.178;13.546;2022-12-29T10:15:55;99439.00;;;12.90
4421;BMP180;11824;51.178;13.546;2022-12-29T10:21:33;99442.00;;;12.90
4421;BMP180;11824;51.178;13.546;2022-12-29T10:24:07;99437.00;;;13.00
4421;BMP180;11824;51.178;13.546;2022-12-29T10:26:40;99430.00;;;13.00
4421;BMP180;11824;51.178;13.546;2022-12-29T10:29:14;99443.00;;;13.00
4421;BMP180;11824;51.178;13.546;2022-12-29T10:31:45;99443.00;;;13.00
4421;BMP180;11824;51.178;13.546;2022-12-29T10:34:19;99439.00;;;13.10
4421;BMP180;11824;51.178;13.546;2022-12-29T10:36:49;99441.00;;;13.10
4421;BMP180;11824;51.178;13.546;2022-12-29T10:39:21;99460.00;;;13.20
4421;BMP180;11824;51.178;13.546;2022-12-29T10:41:53;99441.00;;;13.30
4421;BMP180;11824;51.178;13.546;2022-12-29T10:44:23;99425.00;;;13.40
4421;BMP180;11824;51.178;13.546;2022-12-29T10:46:57;99427.00;;;13.40
4421;BMP180;11824;51.178;13.546;2022-12-29T10:49:29;99438.00;;;13.40
4421;BMP180;11824;51.178;13.546;2022-12-29T10:51:59;99438.00;;;13.40
4421;BMP180;11824;51.178;13.546;2022-12-29T10:54:33;99434.00;;;13.40
4421;BMP180;11824;51.178;13.546;2022-12-29T10:57:07;99440.00;;;13.50
4421;BMP180;11824;51.178;13.546;2022-12-29T10:59:37;99431.00;;;13.50
4421;BMP180;11824;51.178;13.546;2022-12-29T11:02:19;99422.00;;;13.50
4421;BMP180;11824;51.178;13.546;2022-12-29T11:04:55;99416.00;;;13.60
4421;BMP180;11824;51.178;13.546;2022-12-29T11:07:24;99409.00;;;13.60
4421;BMP180;11824;51.178;13.546;2022-12-29T11:09:54;99407.00;;;13.70
4421;BMP180;11824;51.178;13.546;2022-12-29T11:12:24;99399.00;;;13.70
4421;BMP180;11824;51.178;13.546;2022-12-29T11:15:13;99404.00;;;13.80
4421;BMP180;11824;51.178;13.546;2022-12-29T11:17:45;99400.00;;;13.80
4421;BMP180;11824;51.178;13.546;2022-12-29T11:20:34;99398.00;;;13.90
4421;BMP180;11824;51.178;13.546;2022-12-29T11:23:03;99403.00;;;13.90
4421;BMP180;11824;51.178;13.546;2022-12-29T11:25:30;99401.00;;;13.90
4421;BMP180;11824;51.178;13.546;2022-12-29T11:28:00;99412.00;;;13.90
4421;BMP180;11824;51.178;13.546;2022-12-29T11:30:30;99411.00;;;14.00
4421;BMP180;11824;51.178;13.546;2022-12-29T11:32:58;99411.00;;;14.00
4421;BMP180;11824;51.178;13.546;2022-12-29T11:35:35;99411.00;;;14.00
4421;BMP180;11824;51.178;13.546;2022-12-29T11:38:03;99406.00;;;14.10
4421;BMP180;11824;51.178;13.546;2022-12-29T11:40:31;99415.00;;;14.10
4421;BMP180;11824;51.178;13.546;2022-12-29T11:43:02;99413.00;;;14.10
4421;BMP180;11824;51.178;13.546;2022-12-29T11:45:33;99418.00;;;14.20
4421;BMP180;11824;51.178;13.546;2022-12-29T11:48:06;99423.00;;;14.20
4421;BMP180;11824;51.178;13.546;2022-12-29T11:50:37;99407.00;;;14.20
4421;BMP180;11824;51.178;13.546;2022-12-29T11:53:07;99408.00;;;14.20
4421;BMP180;11824;51.178;13.546;2022-12-29T11:55:41;99409.00;;;14.20
4421;BMP180;11824;51.178;13.546;2022-12-29T11:58:17;99397.00;;;14.20
4421;BMP180;11824;51.178;13.546;2022-12-29T12:00:46;99402.00;;;14.30
4421;BMP180;11824;51.178;13.546;2022-12-29T12:03:18;99387.00;;;14.30
4421;BMP180;11824;51.178;13.546;2022-12-29T12:05:50;99395.00;;;14.30
4421;BMP180;11824;51.178;13.546;2022-12-29T12:08:28;99400.00;;;14.30
4421;BMP180;11824;51.178;13.546;2022-12-29T12:11:02;99391.00;;;14.40
4421;BMP180;11824;51.178;13.546;2022-12-29T12:13:33;99395.00;;;14.40
4421;BMP180;11824;51.178;13.546;2022-12-29T12:16:06;99404.00;;;14.40
4421;BMP180;11824;51.178;13.546;2022-12-29T12:18:40;99395.00;;;14.40
4421;BMP180;11824;51.178;13.546;2022-12-29T12:21:16;99403.00;;;14.40
4421;BMP180;11824;51.178;13.546;2022-12-29T12:24:10;99397.00;;;14.40
4421;BMP180;11824;51.178;13.546;2022-12-29T12:26:54;99394.00;;;14.40
4421;BMP180;11824;51.178;13.546;2022-12-29T12:29:26;99389.00;;;14.40
4421;BMP180;11824;51.178;13.546;2022-12-29T12:31:59;99380.00;;;14.50
4421;BMP180;11824;51.178;13.546;2022-12-29T12:34:32;99391.00;;;14.50
4421;BMP180;11824;51.178;13.546;2022-12-29T12:37:18;99394.00;;;14.50
4421;BMP180;11824;51.178;13.546;2022-12-29T12:40:15;99384.00;;;14.50
4421;BMP180;11824;51.178;13.546;2022-12-29T12:42:52;99382.00;;;14.50
4421;BMP180;11824;51.178;13.546;2022-12-29T12:45:38;99371.00;;;14.50
4421;BMP180;11824;51.178;13.546;2022-12-29T12:48:24;99372.00;;;14.50
4421;BMP180;11824;51.178;13.546;2022-12-29T12:50:58;99371.00;;;14.50
4421;BMP180;11824;51.178;13.546;2022-12-29T12:53:41;99376.00;;;14.50
4421;BMP180;11824;51.178;13.546;2022-12-29T12:56:25;99376.00;;;14.50
4421;BMP180;11824;51.178;13.546;2022-12-29T12:58:59;99372.00;;;14.50
4421;BMP180;11824;51.178;13.546;2022-12-29T13:01:42;99373.00;;;14.50
4421;BMP180;11824;51.178;13.546;2022-12-29T13:04:39;99375.00;;;14.50
4421;BMP180;11824;51.178;13.546;2022-12-29T13:07:18;99371.00;;;14.50
4421;BMP180;11824;51.178;13.546;2022-12-29T13:10:14;99377.00;;;14.40
4421;BMP180;11824;51.178;13.546;2022-12-29T13:12:52;99359.00;;;14.30
4421;BMP180;11824;51.178;13.546;2022-12-29T13:15:32;99378.00;;;14.30
4421;BMP180;11824;51.178;13.546;2022-12-29T13:18:10;99377.00;;;14.20
4421;BMP180;11824;51.178;13.546;2022-12-29T13:20:49;99386.00;;;14.20
4421;BMP180;11824;51.178;13.546;2022-12-29T13:23:23;99374.00;;;14.10
4421;BMP180;11824;51.178;13.546;2022-12-29T13:25:58;99380.00;;;14.00
4421;BMP180;11824;51.178;13.546;2022-12-29T13:28:31;99387.00;;;14.00
4421;BMP180;11824;51.178;13.546;2022-12-29T13:31:04;99383.00;;;13.90
4421;BMP180;11824;51.178;13.546;2022-12-29T13:33:41;99391.00;;;13.90
4421;BMP180;11824;51.178;13.546;2022-12-29T13:36:19;99390.00;;;13.90
4421;BMP180;11824;51.178;13.546;2022-12-29T13:38:51;99379.00;;;13.80
4421;BMP180;11824;51.178;13.546;2022-12-29T13:41:33;99380.00;;;13.90
4421;BMP180;11824;51.178;13.546;2022-12-29T13:44:03;99392.00;;;13.80
4421;BMP180;11824;51.178;13.546;2022-12-29T13:46:35;99379.00;;;13.90
4421;BMP180;11824;51.178;13.546;2022-12-29T13:49:06;99393.00;;;13.90
4421;BMP180;11824;51.178;13.546;2022-12-29T13:51:35;99401.00;;;13.80
4421;BMP180;11824;51.178;13.546;2022-12-29T13:54:14;99398.00;;;13.80
4421;BMP180;11824;51.178;13.546;2022-12-29T13:56:51;99406.00;;;13.80
4421;BMP180;11824;51.178;13.546;2022-12-29T13:59:23;99406.00;;;13.80
4421;BMP180;11824;51.178;13.546;2022-12-29T14:01:58;99413.00;;;13.80
4421;BMP180;11824;51.178;13.546;2022-12-29T14:04:28;99416.00;;;13.80
4421;BMP180;11824;51.178;13.546;2022-12-29T14:07:04;99412.00;;;13.70
4421;BMP180;11824;51.178;13.546;2022-12-29T14:09:47;99419.00;;;13.70
4421;BMP180;11824;51.178;13.546;2022-12-29T14:12:39;99416.00;;;13.70
4421;BMP180;11824;51.178;13.546;2022-12-29T14:15:21;99411.00;;;13.70
4421;BMP180;11824;51.178;13.546;2022-12-29T14:18:12;99413.00;;;13.70
4421;BMP180;11824;51.178;13.546;2022-12-29T14:20:49;99419.00;;;13.60
4421;BMP180;11824;51.178;13.546;2022-12-29T14:23:36;99415.00;;;13.60
4421;BMP180;11824;51.178;13.546;2022-12-29T14:26:15;99431.00;;;13.60
4421;BMP180;11824;51.178;13.546;2022-12-29T14:28:46;99437.00;;;13.50
4421;BMP180;11824;51.178;13.546;2022-12-29T14:31:33;99424.00;;;13.50
4421;BMP180;11824;51.178;13.546;2022-12-29T14:34:27;99415.00;;;13.50
4421;BMP180;11824;51.178;13.546;2022-12-29T14:37:04;99443.00;;;13.50
4421;BMP180;11824;51.178;13.546;2022-12-29T14:39:46;99438.00;;;13.40
4421;BMP180;11824;51.178;13.546;2022-12-29T14:42:18;99452.00;;;13.40
4421;BMP180;11824;51.178;13.546;2022-12-29T14:44:51;99437.00;;;13.40
4421;BMP180;11824;51.178;13.546;2022-12-29T14:47:22;99431.00;;;13.30